createdAt,value
2023-04-23T00:00:20.369Z,99.88
2023-04-23T00:00:54.914Z,101.00
2023-04-23T00:01:28.600Z,102.20
2023-04-23T00:02:02.941Z,100.28
2023-04-23T00:02:38.411Z,104.13
2023-04-23T00:03:21.844Z,103.35
2023-04-23T00:03:57.686Z,101.78
2023-04-23T00:04:36.492Z,101.65
2023-04-23T00:05:10.309Z,102.80
2023-04-23T00:05:44.584Z,99.72
2023-04-23T00:06:18.844Z,102.18
2023-04-23T00:06:52.662Z,102.93
2023-04-23T00:07:25.725Z,101.55
2023-04-23T00:08:01.134Z,102.80
2023-04-23T00:08:34.187Z,102.50
2023-04-23T00:09:07.723Z,102.47
2023-04-23T00:09:42.214Z,105.13
2023-04-23T00:10:15.136Z,103.57
2023-04-23T00:10:48.215Z,101.22
2023-04-23T00:11:22.102Z,102.50
2023-04-23T00:11:55.151Z,103.65
2023-04-23T00:12:28.885Z,100.75
2023-04-23T00:13:02.750Z,101.00
2023-04-23T00:13:36.326Z,99.50
2023-04-23T00:14:09.462Z,102.15
2023-04-23T00:14:44.938Z,101.05
2023-04-23T00:15:20.555Z,102.30
2023-04-23T00:15:53.601Z,101.78
2023-04-23T00:16:27.771Z,99.78
2023-04-23T00:17:00.566Z,99.15
2023-04-23T00:17:33.130Z,100.28
2023-04-23T00:18:06.945Z,102.15
2023-04-23T00:18:39.477Z,99.70
2023-04-23T00:19:11.989Z,100.55
2023-04-23T00:19:45.496Z,101.22
2023-04-23T00:20:18.106Z,97.65
2023-04-23T00:20:50.639Z,99.53
2023-04-23T00:21:24.159Z,99.93
2023-04-23T00:21:56.659Z,98.45
2023-04-23T00:22:29.133Z,98.40
2023-04-23T00:23:02.704Z,101.75
2023-04-23T00:23:35.235Z,99.25
2023-04-23T00:24:08.083Z,98.47
2023-04-23T00:24:41.847Z,97.93
2023-04-23T00:25:14.636Z,99.30
2023-04-23T00:25:47.207Z,101.45
2023-04-23T00:26:20.779Z,101.07
2023-04-23T00:26:53.685Z,98.47
2023-04-23T00:27:26.218Z,100.10
2023-04-23T00:28:00.066Z,99.40
2023-04-23T00:28:39.394Z,100.93
2023-04-23T00:29:17.581Z,96.82
2023-04-23T00:29:52.414Z,97.38
2023-04-23T00:30:25.021Z,99.10
2023-04-23T00:30:57.584Z,100.57
2023-04-23T00:31:31.230Z,97.65
2023-04-23T00:32:03.943Z,95.70
2023-04-23T00:32:36.618Z,97.65
2023-04-23T00:33:10.517Z,97.93
2023-04-23T00:33:43.110Z,99.57
2023-04-23T00:34:16.008Z,97.78
2023-04-23T00:34:49.279Z,98.05
2023-04-23T00:35:23.480Z,97.50
2023-04-23T00:35:55.997Z,100.78
2023-04-23T00:36:28.719Z,97.38
2023-04-23T00:37:05.885Z,100.60
2023-04-23T00:37:38.429Z,98.85
2023-04-23T00:38:10.925Z,97.97
2023-04-23T00:38:44.518Z,98.53
2023-04-23T00:39:16.999Z,96.30
2023-04-23T00:39:49.521Z,96.80
2023-04-23T00:40:23.591Z,98.45
2023-04-23T00:40:57.253Z,99.65
2023-04-23T00:41:29.822Z,96.45
2023-04-23T00:42:07.110Z,96.55
2023-04-23T00:42:41.580Z,94.55
2023-04-23T00:43:15.381Z,97.63
2023-04-23T00:43:49.232Z,95.30
2023-04-23T00:44:22.594Z,96.43
2023-04-23T00:44:57.071Z,95.85
2023-04-23T00:45:30.678Z,95.65
2023-04-23T00:46:03.798Z,96.13
2023-04-23T00:46:36.549Z,95.35
2023-04-23T00:47:10.612Z,96.45
2023-04-23T00:47:44.346Z,98.30
2023-04-23T00:48:17.443Z,97.38
2023-04-23T00:48:51.849Z,99.47
2023-04-23T00:49:25.255Z,97.88
2023-04-23T00:49:58.154Z,97.00
2023-04-23T00:50:30.749Z,98.63
2023-04-23T00:51:06.512Z,99.35
2023-04-23T00:51:39.053Z,97.78
2023-04-23T00:52:11.613Z,97.88
2023-04-23T00:52:45.154Z,97.88
2023-04-23T00:53:17.660Z,96.60
2023-04-23T00:53:50.285Z,97.28
2023-04-23T00:54:22.840Z,98.38
2023-04-23T00:54:56.502Z,98.63
2023-04-23T00:55:29.071Z,99.10
2023-04-23T00:56:04.203Z,96.55
2023-04-23T00:56:37.906Z,97.70
2023-04-23T00:57:10.687Z,98.88
2023-04-23T00:57:43.299Z,97.55
2023-04-23T00:58:16.812Z,100.30
2023-04-23T00:58:49.555Z,97.65
2023-04-23T00:59:22.091Z,97.72
2023-04-23T00:59:58.316Z,98.15
2023-04-23T01:00:31.969Z,99.72
2023-04-23T01:01:04.882Z,97.28
2023-04-23T01:01:37.822Z,97.53
2023-04-23T01:02:11.645Z,97.13
2023-04-23T01:02:45.090Z,97.93
2023-04-23T01:03:23.267Z,99.45
2023-04-23T01:03:57.680Z,101.20
2023-04-23T01:04:31.143Z,99.57
2023-04-23T01:05:06.692Z,96.40
2023-04-23T01:05:40.499Z,97.30
2023-04-23T01:06:13.057Z,98.47
2023-04-23T01:06:47.161Z,99.78
2023-04-23T01:07:19.872Z,98.80
2023-04-23T01:07:53.688Z,99.13
2023-04-23T01:08:26.313Z,98.70
2023-04-23T01:08:59.396Z,98.88
2023-04-23T01:09:32.549Z,99.40
2023-04-23T01:10:07.516Z,98.25
2023-04-23T01:10:40.110Z,98.03
2023-04-23T01:11:14.823Z,98.50
2023-04-23T01:11:49.880Z,100.38
2023-04-23T01:12:22.663Z,102.10
2023-04-23T01:12:56.568Z,101.10
2023-04-23T01:13:30.301Z,97.95
2023-04-23T01:14:03.864Z,101.35
2023-04-23T01:14:38.360Z,102.05
2023-04-23T01:15:13.800Z,101.20
2023-04-23T01:15:46.552Z,101.25
2023-04-23T01:16:19.284Z,99.32
2023-04-23T01:16:52.778Z,103.03
2023-04-23T01:17:26.826Z,100.78
2023-04-23T01:17:59.644Z,101.78
2023-04-23T01:18:32.457Z,102.82
2023-04-23T01:19:05.714Z,103.88
2023-04-23T01:19:39.357Z,103.90
2023-04-23T01:20:12.652Z,105.65
2023-04-23T01:20:45.161Z,102.03
2023-04-23T01:21:19.271Z,103.50
2023-04-23T01:21:53.048Z,103.28
2023-04-23T01:22:26.925Z,106.55
2023-04-23T01:23:00.490Z,102.80
2023-04-23T01:23:33.159Z,103.22
2023-04-23T01:24:06.265Z,106.57
2023-04-23T01:24:41.317Z,104.40
2023-04-23T01:25:14.287Z,102.97
2023-04-23T01:25:47.091Z,102.43
2023-04-23T01:26:20.590Z,104.13
2023-04-23T01:26:53.503Z,104.63
2023-04-23T01:27:26.094Z,102.85
2023-04-23T01:27:59.983Z,106.65
2023-04-23T01:28:33.407Z,107.47
2023-04-23T01:29:06.888Z,105.15
2023-04-23T01:29:40.686Z,106.00
2023-04-23T01:30:13.958Z,104.25
2023-04-23T01:30:47.699Z,109.07
2023-04-23T01:31:21.038Z,106.82
2023-04-23T01:31:54.776Z,106.32
2023-04-23T01:32:28.438Z,106.15
2023-04-23T01:33:01.572Z,106.82
2023-04-23T01:33:34.508Z,108.07
2023-04-23T01:34:08.072Z,108.28
2023-04-23T01:34:42.554Z,105.35
2023-04-23T01:35:15.490Z,106.63
2023-04-23T01:35:49.420Z,107.88
2023-04-23T01:36:23.545Z,109.57
2023-04-23T01:36:57.986Z,108.65
2023-04-23T01:37:33.461Z,108.50
2023-04-23T01:38:08.107Z,108.00
2023-04-23T01:38:41.044Z,108.60
2023-04-23T01:39:13.569Z,104.60
2023-04-23T01:39:47.029Z,107.35
2023-04-23T01:40:20.313Z,108.65
2023-04-23T01:40:52.954Z,108.55
2023-04-23T01:41:28.024Z,109.45
2023-04-23T01:42:01.670Z,110.80
2023-04-23T01:42:34.325Z,110.53
2023-04-23T01:43:09.357Z,110.22
2023-04-23T01:43:42.910Z,109.70
2023-04-23T01:44:15.564Z,109.13
2023-04-23T01:44:48.154Z,109.20
2023-04-23T01:45:21.940Z,110.97
2023-04-23T01:45:54.453Z,110.85
2023-04-23T01:46:27.191Z,110.70
2023-04-23T01:46:59.732Z,109.53
2023-04-23T01:47:33.311Z,110.10
2023-04-23T01:48:06.203Z,110.78
2023-04-23T01:48:39.232Z,112.53
2023-04-23T01:49:12.807Z,110.22
2023-04-23T01:49:45.659Z,110.03
2023-04-23T01:50:18.218Z,108.70
2023-04-23T01:50:52.837Z,109.40
2023-04-23T01:51:25.767Z,111.32
2023-04-23T01:51:58.336Z,109.22
2023-04-23T01:52:33.163Z,111.47
2023-04-23T01:53:05.692Z,110.85
2023-04-23T01:53:38.238Z,110.90
2023-04-23T01:54:11.763Z,111.03
2023-04-23T01:54:44.375Z,109.85
2023-04-23T01:55:19.013Z,111.47
2023-04-23T01:55:54.904Z,113.22
2023-04-23T01:56:30.552Z,112.22
2023-04-23T01:57:03.922Z,113.55
2023-04-23T01:57:37.511Z,114.80
2023-04-23T01:58:10.163Z,112.30
2023-04-23T01:58:42.637Z,112.72
2023-04-23T01:59:16.144Z,110.32
2023-04-23T01:59:48.671Z,113.57
2023-04-23T02:00:21.368Z,112.70
2023-04-23T02:00:54.935Z,113.07
2023-04-23T02:01:40.967Z,110.68
2023-04-23T02:02:15.183Z,113.57
2023-04-23T02:02:48.566Z,112.13
2023-04-23T02:03:22.729Z,107.53
2023-04-23T02:03:56.515Z,114.00
2023-04-23T02:04:31.632Z,112.85
2023-04-23T02:05:05.067Z,107.90
2023-04-23T02:05:39.540Z,113.15
2023-04-23T02:06:12.616Z,110.07
2023-04-23T02:06:48.483Z,116.32
2023-04-23T02:07:22.268Z,113.55
2023-04-23T02:07:56.206Z,114.22
2023-04-23T02:08:28.917Z,115.03
2023-04-23T02:09:02.538Z,115.88
2023-04-23T02:09:36.266Z,112.75
2023-04-23T02:10:10.085Z,113.80
2023-04-23T02:10:43.545Z,115.07
2023-04-23T02:11:16.136Z,110.15
2023-04-23T02:11:48.726Z,111.22
2023-04-23T02:12:22.749Z,114.25
2023-04-23T02:12:55.508Z,115.72
2023-04-23T02:13:28.007Z,115.43
2023-04-23T02:14:01.787Z,116.38
2023-04-23T02:14:34.327Z,113.90
2023-04-23T02:15:08.683Z,115.65
2023-04-23T02:15:43.212Z,115.95
2023-04-23T02:16:16.165Z,113.43
2023-04-23T02:16:49.662Z,116.50
2023-04-23T02:17:23.373Z,111.40
2023-04-23T02:17:57.145Z,108.35
2023-04-23T02:18:29.677Z,113.97
2023-04-23T02:19:02.306Z,111.00
2023-04-23T02:19:35.827Z,112.70
2023-04-23T02:20:09.778Z,112.18
2023-04-23T02:20:42.410Z,113.23
2023-04-23T02:21:14.875Z,111.03
2023-04-23T02:21:48.338Z,111.80
2023-04-23T02:22:22.111Z,111.20
2023-04-23T02:22:56.753Z,110.47
2023-04-23T02:23:30.253Z,111.50
2023-04-23T02:24:02.783Z,112.95
2023-04-23T02:24:36.529Z,110.93
2023-04-23T02:25:11.095Z,112.70
2023-04-23T02:25:43.749Z,111.47
2023-04-23T02:26:16.669Z,111.25
2023-04-23T02:26:50.160Z,112.55
2023-04-23T02:27:22.996Z,111.57
2023-04-23T02:27:57.403Z,108.88
2023-04-23T02:28:29.876Z,113.47
2023-04-23T02:29:03.447Z,113.35
2023-04-23T02:29:36.839Z,108.07
2023-04-23T02:30:11.414Z,105.97
2023-04-23T02:30:46.735Z,111.38
2023-04-23T02:31:20.643Z,111.72
2023-04-23T02:31:53.448Z,113.78
2023-04-23T02:32:28.106Z,113.47
2023-04-23T02:33:00.664Z,112.20
2023-04-23T02:33:33.287Z,104.47
2023-04-23T02:34:06.778Z,110.45
2023-04-23T02:34:39.433Z,110.20
2023-04-23T02:35:15.149Z,113.15
2023-04-23T02:35:48.752Z,108.10
2023-04-23T02:36:21.944Z,109.13
2023-04-23T02:36:54.484Z,110.88
2023-04-23T02:37:28.339Z,111.70
2023-04-23T02:38:02.264Z,109.63
2023-04-23T02:38:34.789Z,108.85
2023-04-23T02:39:08.377Z,110.93
2023-04-23T02:39:40.867Z,109.20
2023-04-23T02:40:14.173Z,110.47
2023-04-23T02:40:46.735Z,111.72
2023-04-23T02:41:20.200Z,109.38
2023-04-23T02:41:52.749Z,109.68
2023-04-23T02:42:25.396Z,109.57
2023-04-23T02:42:58.980Z,110.40
2023-04-23T02:43:31.452Z,110.13
2023-04-23T02:44:04.034Z,107.93
2023-04-23T02:44:37.725Z,106.20
2023-04-23T02:45:11.330Z,107.78
2023-04-23T02:45:44.793Z,109.22
2023-04-23T02:46:18.285Z,109.95
2023-04-23T02:46:50.919Z,111.25
2023-04-23T02:47:23.550Z,107.65
2023-04-23T02:47:57.980Z,108.22
2023-04-23T02:48:30.724Z,108.90
2023-04-23T02:49:03.306Z,107.50
2023-04-23T02:49:36.509Z,110.70
2023-04-23T02:50:10.340Z,108.15
2023-04-23T02:50:42.829Z,107.50
2023-04-23T02:51:15.494Z,108.78
2023-04-23T02:51:48.171Z,106.95
2023-04-23T02:52:22.496Z,109.72
2023-04-23T02:52:55.020Z,105.50
2023-04-23T02:53:29.012Z,109.07
2023-04-23T02:54:04.052Z,107.22
2023-04-23T02:54:37.100Z,108.32
2023-04-23T02:55:10.979Z,108.45
2023-04-23T02:55:44.493Z,105.95
2023-04-23T02:56:17.160Z,108.03
2023-04-23T02:56:49.743Z,107.20
2023-04-23T02:57:23.721Z,108.63
2023-04-23T02:57:56.695Z,109.25
2023-04-23T02:58:29.953Z,107.45
2023-04-23T02:59:07.259Z,104.53
2023-04-23T02:59:40.184Z,108.30
2023-04-23T03:00:14.933Z,109.10
2023-04-23T03:00:49.870Z,108.35
2023-04-23T03:01:22.562Z,107.50
2023-04-23T03:01:55.243Z,107.10
2023-04-23T03:02:29.020Z,108.18
2023-04-23T03:03:01.697Z,107.15
2023-04-23T03:03:34.923Z,107.18
2023-04-23T03:04:10.942Z,107.78
2023-04-23T03:04:43.658Z,107.60
2023-04-23T03:05:16.454Z,108.05
2023-04-23T03:05:50.113Z,108.07
2023-04-23T03:06:22.775Z,109.15
2023-04-23T03:06:55.601Z,109.10
2023-04-23T03:07:29.286Z,102.95
2023-04-23T03:08:01.878Z,107.15
2023-04-23T03:08:36.896Z,109.07
2023-04-23T03:09:09.498Z,106.40
2023-04-23T03:09:42.746Z,106.97
2023-04-23T03:10:16.254Z,106.63
2023-04-23T03:10:48.845Z,107.53
2023-04-23T03:11:22.631Z,106.07
2023-04-23T03:11:57.408Z,104.20
2023-04-23T03:12:30.021Z,105.85
2023-04-23T03:13:02.549Z,104.20
2023-04-23T03:13:36.241Z,106.63
2023-04-23T03:14:08.891Z,104.88
2023-04-23T03:14:41.980Z,108.05
2023-04-23T03:15:16.054Z,105.65
2023-04-23T03:15:49.243Z,108.25
2023-04-23T03:16:21.863Z,104.90
2023-04-23T03:16:55.555Z,105.20
2023-04-23T03:17:28.229Z,104.70
2023-04-23T03:18:01.517Z,104.38
2023-04-23T03:18:35.316Z,106.45
2023-04-23T03:19:08.745Z,106.10
2023-04-23T03:19:41.377Z,104.50
2023-04-23T03:20:15.495Z,106.60
2023-04-23T03:20:48.204Z,103.30
2023-04-23T03:21:21.398Z,103.35
2023-04-23T03:21:54.970Z,103.00
2023-04-23T03:22:27.485Z,104.55
2023-04-23T03:23:00.002Z,105.32
2023-04-23T03:23:34.038Z,105.00
2023-04-23T03:24:08.167Z,102.87
2023-04-23T03:24:40.859Z,104.10
2023-04-23T03:25:14.496Z,106.32
2023-04-23T03:25:47.057Z,104.22
2023-04-23T03:26:19.588Z,105.55
2023-04-23T03:26:53.072Z,104.47
2023-04-23T03:27:25.587Z,102.63
2023-04-23T03:27:58.105Z,102.53
2023-04-23T03:28:32.450Z,103.82
2023-04-23T03:29:06.263Z,102.57
2023-04-23T03:29:39.204Z,102.88
2023-04-23T03:30:13.278Z,101.85
2023-04-23T03:30:46.141Z,101.72
2023-04-23T03:31:21.921Z,102.90
2023-04-23T03:31:56.632Z,100.65
2023-04-23T03:32:29.259Z,105.15
2023-04-23T03:33:02.731Z,103.00
2023-04-23T03:33:37.115Z,100.88
2023-04-23T03:34:09.704Z,101.13
2023-04-23T03:34:43.778Z,99.53
2023-04-23T03:35:18.031Z,101.13
2023-04-23T03:35:53.128Z,100.80
2023-04-23T03:36:31.028Z,99.22
2023-04-23T03:37:03.591Z,98.22
2023-04-23T03:37:38.768Z,99.03
2023-04-23T03:38:12.701Z,101.30
2023-04-23T03:38:45.186Z,101.95
2023-04-23T03:39:19.148Z,99.97
2023-04-23T03:39:56.861Z,98.38
2023-04-23T03:40:29.543Z,101.35
2023-04-23T03:41:06.120Z,100.13
2023-04-23T03:41:39.667Z,101.35
2023-04-23T03:42:13.904Z,100.55
2023-04-23T03:42:46.431Z,98.25
2023-04-23T03:43:21.607Z,97.60
2023-04-23T03:44:21.602Z,98.82
2023-04-23T03:44:56.225Z,99.53
2023-04-23T03:45:30.616Z,100.88
2023-04-23T03:46:03.433Z,99.85
2023-04-23T03:46:40.118Z,99.10
2023-04-23T03:47:12.712Z,99.82
2023-04-23T03:47:45.417Z,99.90
2023-04-23T03:48:19.247Z,97.97
2023-04-23T03:48:51.923Z,98.65
2023-04-23T03:49:30.843Z,97.15
2023-04-23T03:50:04.950Z,97.57
2023-04-23T03:50:40.492Z,98.93
2023-04-23T03:51:34.354Z,98.53
2023-04-23T03:52:06.882Z,98.60
2023-04-23T03:52:43.293Z,96.50
2023-04-23T03:53:22.900Z,94.97
2023-04-23T03:54:19.674Z,96.40
2023-04-23T03:55:16.632Z,96.82
2023-04-23T03:55:51.370Z,96.15
2023-04-23T03:56:25.836Z,98.40
2023-04-23T03:57:16.296Z,96.30
2023-04-23T03:58:01.602Z,98.05
2023-04-23T03:58:42.359Z,96.28
2023-04-23T03:59:14.903Z,97.28
2023-04-23T03:59:48.707Z,95.03
2023-04-23T04:00:22.287Z,95.97
2023-04-23T04:00:54.845Z,97.45
2023-04-23T04:01:27.338Z,95.25
2023-04-23T04:02:01.216Z,95.95
2023-04-23T04:02:33.871Z,93.40
2023-04-23T04:03:06.624Z,94.68
2023-04-23T04:04:29.673Z,94.30
2023-04-23T04:05:03.248Z,95.50
2023-04-23T04:05:37.111Z,93.90
2023-04-23T04:06:10.177Z,92.68
2023-04-23T04:06:42.711Z,93.38
2023-04-23T04:07:15.322Z,93.78
2023-04-23T04:07:48.868Z,93.85
2023-04-23T04:08:23.027Z,91.32
2023-04-23T04:08:55.885Z,97.43
2023-04-23T04:09:34.000Z,95.28
2023-04-23T04:10:08.097Z,94.45
2023-04-23T04:10:41.925Z,94.18
2023-04-23T04:11:15.214Z,95.68
2023-04-23T04:11:47.853Z,95.40
2023-04-23T04:12:21.624Z,92.28
2023-04-23T04:12:55.349Z,93.07
2023-04-23T04:13:27.946Z,95.40
2023-04-23T04:14:00.561Z,94.15
2023-04-23T04:14:34.482Z,94.25
2023-04-23T04:15:08.187Z,93.95
2023-04-23T04:15:40.733Z,95.22
2023-04-23T04:16:14.182Z,95.10
2023-04-23T04:16:46.728Z,94.28
2023-04-23T04:17:19.284Z,92.97
2023-04-23T04:17:51.888Z,93.55
2023-04-23T04:18:25.642Z,94.93
2023-04-23T04:18:58.183Z,95.45
2023-04-23T04:19:30.724Z,93.95
2023-04-23T04:20:04.296Z,96.32
2023-04-23T04:20:36.839Z,94.28
2023-04-23T04:21:09.368Z,92.93
2023-04-23T04:21:42.837Z,94.72
2023-04-23T04:22:16.199Z,93.97
2023-04-23T04:22:48.772Z,94.35
2023-04-23T04:23:22.340Z,93.15
2023-04-23T04:23:55.724Z,93.43
2023-04-23T04:24:32.306Z,95.40
2023-04-23T04:25:07.004Z,91.80
2023-04-23T04:25:40.192Z,93.55
2023-04-23T04:26:13.162Z,94.22
2023-04-23T04:26:47.667Z,93.53
2023-04-23T04:27:20.757Z,93.35
2023-04-23T04:27:53.284Z,94.30
2023-04-23T04:28:26.822Z,95.65
2023-04-23T04:29:00.033Z,92.88
2023-04-23T04:29:33.627Z,94.07
2023-04-23T04:30:09.053Z,95.00
2023-04-23T04:30:42.518Z,93.55
2023-04-23T04:31:16.121Z,95.03
2023-04-23T04:31:49.820Z,93.10
2023-04-23T04:32:23.506Z,95.10
2023-04-23T04:32:58.685Z,95.53
2023-04-23T04:33:31.192Z,92.63
2023-04-23T04:34:04.100Z,90.43
2023-04-23T04:34:38.391Z,94.35
2023-04-23T04:35:12.786Z,93.60
2023-04-23T04:35:45.654Z,94.35
2023-04-23T04:36:19.337Z,94.18
2023-04-23T04:36:53.788Z,93.85
2023-04-23T04:37:26.494Z,93.07
2023-04-23T04:37:59.990Z,92.53
2023-04-23T04:38:32.464Z,93.60
2023-04-23T04:39:05.243Z,95.30
2023-04-23T04:39:40.097Z,93.10
2023-04-23T04:40:13.148Z,92.60
2023-04-23T04:40:45.719Z,94.30
2023-04-23T04:41:19.925Z,93.72
2023-04-23T04:41:52.467Z,95.68
2023-04-23T04:42:25.499Z,93.10
2023-04-23T04:43:00.133Z,95.60
2023-04-23T04:43:32.937Z,93.97
2023-04-23T04:44:07.274Z,95.03
2023-04-23T04:44:40.534Z,93.90
2023-04-23T04:45:13.292Z,94.60
2023-04-23T04:45:46.749Z,93.50
2023-04-23T04:46:20.799Z,96.05
2023-04-23T04:46:53.892Z,94.35
2023-04-23T04:47:27.834Z,93.23
2023-04-23T04:48:00.373Z,95.53
2023-04-23T04:48:32.924Z,94.57
2023-04-23T04:49:06.424Z,95.38
2023-04-23T04:49:38.952Z,94.88
2023-04-23T04:50:12.206Z,92.97
2023-04-23T04:50:46.513Z,95.00
2023-04-23T04:51:19.219Z,93.30
2023-04-23T04:51:51.812Z,95.15
2023-04-23T04:52:25.533Z,92.63
2023-04-23T04:52:58.122Z,90.53
2023-04-23T04:53:30.633Z,96.25
2023-04-23T04:54:03.233Z,95.13
2023-04-23T04:54:36.671Z,93.75
2023-04-23T04:55:10.910Z,93.35
2023-04-23T04:55:43.555Z,95.20
2023-04-23T04:56:17.105Z,96.75
2023-04-23T04:56:49.636Z,94.88
2023-04-23T04:57:22.945Z,93.20
2023-04-23T04:57:56.461Z,92.57
2023-04-23T04:58:28.976Z,94.78
2023-04-23T04:59:01.621Z,94.75
2023-04-23T04:59:35.150Z,91.90
2023-04-23T05:00:22.526Z,92.68
2023-04-23T05:00:55.903Z,92.63
2023-04-23T05:01:30.051Z,92.00
2023-04-23T05:02:02.794Z,93.38
2023-04-23T05:02:35.394Z,92.47
2023-04-23T05:03:08.401Z,91.85
2023-04-23T05:03:42.579Z,91.43
2023-04-23T05:04:19.142Z,93.47
2023-04-23T05:04:52.410Z,90.53
2023-04-23T05:05:27.204Z,91.72
2023-04-23T05:05:59.706Z,93.47
2023-04-23T05:06:32.432Z,93.82
2023-04-23T05:07:06.169Z,93.10
2023-04-23T05:07:38.743Z,93.03
2023-04-23T05:08:11.442Z,92.72
2023-04-23T05:08:48.137Z,94.35
2023-04-23T05:09:21.772Z,93.68
2023-04-23T05:09:54.384Z,95.15
2023-04-23T05:10:28.647Z,91.53
2023-04-23T05:11:04.850Z,93.68
2023-04-23T05:11:37.444Z,90.03
2023-04-23T05:12:09.921Z,92.53
2023-04-23T05:12:43.074Z,90.65
2023-04-23T05:13:19.020Z,92.35
2023-04-23T05:13:53.493Z,90.75
2023-04-23T05:14:26.713Z,90.35
2023-04-23T05:15:00.220Z,90.15
2023-04-23T05:15:32.933Z,92.07
2023-04-23T05:16:05.657Z,91.90
2023-04-23T05:16:39.191Z,93.10
2023-04-23T05:17:14.340Z,90.65
2023-04-23T05:17:47.176Z,91.15
2023-04-23T05:18:21.170Z,93.07
2023-04-23T05:18:53.724Z,93.47
2023-04-23T05:19:26.442Z,90.80
2023-04-23T05:19:59.899Z,92.50
2023-04-23T05:20:32.450Z,90.13
2023-04-23T05:21:09.370Z,90.65
2023-04-23T05:21:42.817Z,92.35
2023-04-23T05:22:15.735Z,89.13
2023-04-23T05:22:48.604Z,90.70
2023-04-23T05:23:22.127Z,92.28
2023-04-23T05:23:54.894Z,92.53
2023-04-23T05:24:27.390Z,91.18
2023-04-23T05:25:00.900Z,90.63
2023-04-23T05:25:35.704Z,91.72
2023-04-23T05:26:08.310Z,89.65
2023-04-23T05:26:41.788Z,90.50
2023-04-23T05:27:14.285Z,91.40
2023-04-23T05:27:46.889Z,92.00
2023-04-23T05:28:20.515Z,91.53
2023-04-23T05:28:53.010Z,91.30
2023-04-23T05:29:25.565Z,91.07
2023-04-23T05:29:59.487Z,90.35
2023-04-23T05:30:32.058Z,91.68
2023-04-23T05:31:05.593Z,90.45
2023-04-23T05:31:38.402Z,89.78
2023-04-23T05:32:11.001Z,89.53
2023-04-23T05:32:44.552Z,89.18
2023-04-23T05:33:17.333Z,90.43
2023-04-23T05:33:51.080Z,88.78
2023-04-23T05:34:23.671Z,88.28
2023-04-23T05:34:56.158Z,89.95
2023-04-23T05:35:29.700Z,89.18
2023-04-23T05:36:02.211Z,88.35
2023-04-23T05:36:37.329Z,88.43
2023-04-23T05:37:11.074Z,89.18
2023-04-23T05:37:43.596Z,88.50
2023-04-23T05:38:16.103Z,88.55
2023-04-23T05:38:49.699Z,88.75
2023-04-23T05:39:22.299Z,88.00
2023-04-23T05:39:54.924Z,89.50
2023-04-23T05:40:28.404Z,88.80
2023-04-23T05:41:02.413Z,87.30
2023-04-23T05:41:35.035Z,89.38
2023-04-23T05:42:08.722Z,88.13
2023-04-23T05:42:41.276Z,87.93
2023-04-23T05:43:13.778Z,88.20
2023-04-23T05:43:48.868Z,87.57
2023-04-23T05:44:21.532Z,87.43
2023-04-23T05:44:54.221Z,89.32
2023-04-23T05:45:27.767Z,87.43
2023-04-23T05:46:00.767Z,86.97
2023-04-23T05:46:33.418Z,89.30
2023-04-23T05:47:07.504Z,89.07
2023-04-23T05:47:40.032Z,87.82
2023-04-23T05:48:12.614Z,89.47
2023-04-23T05:48:46.038Z,88.47
2023-04-23T05:49:18.562Z,88.05
2023-04-23T05:49:51.027Z,85.43
2023-04-23T05:50:24.761Z,88.93
2023-04-23T05:50:57.393Z,87.38
2023-04-23T05:51:29.899Z,86.57
2023-04-23T05:52:03.979Z,88.05
2023-04-23T05:52:37.473Z,86.55
2023-04-23T05:53:13.580Z,86.75
2023-04-23T05:53:46.156Z,86.80
2023-04-23T05:54:18.943Z,86.68
2023-04-23T05:54:52.652Z,86.82
2023-04-23T05:55:25.308Z,88.20
2023-04-23T05:55:58.856Z,86.10
2023-04-23T05:56:32.741Z,85.85
2023-04-23T05:57:05.281Z,88.32
2023-04-23T05:57:39.573Z,88.32
2023-04-23T05:58:12.082Z,87.18
2023-04-23T05:58:45.583Z,87.97
2023-04-23T05:59:18.068Z,87.50
2023-04-23T05:59:50.569Z,87.88
2023-04-23T06:00:24.201Z,87.32
2023-04-23T06:00:57.631Z,87.10
2023-04-23T06:01:30.187Z,86.35
2023-04-23T06:02:04.440Z,85.68
2023-04-23T06:02:37.155Z,88.10
2023-04-23T06:03:11.015Z,87.43
2023-04-23T06:03:46.049Z,86.45
2023-04-23T06:04:19.122Z,86.97
2023-04-23T06:04:52.378Z,87.63
2023-04-23T06:05:26.407Z,87.55
2023-04-23T06:05:59.082Z,88.30
2023-04-23T06:06:32.016Z,86.95
2023-04-23T06:07:04.712Z,86.55
2023-04-23T06:07:38.220Z,87.55
2023-04-23T06:08:10.804Z,86.90
2023-04-23T06:08:43.297Z,86.75
2023-04-23T06:09:16.949Z,86.80
2023-04-23T06:09:49.623Z,86.95
2023-04-23T06:10:22.189Z,86.65
2023-04-23T06:10:56.219Z,85.95
2023-04-23T06:11:28.777Z,86.95
2023-04-23T06:12:03.341Z,85.10
2023-04-23T06:12:39.155Z,86.70
2023-04-23T06:13:11.745Z,85.53
2023-04-23T06:13:44.251Z,84.90
2023-04-23T06:14:17.804Z,83.18
2023-04-23T06:14:50.307Z,84.78
2023-04-23T06:15:26.889Z,84.70
2023-04-23T06:16:00.678Z,86.18
2023-04-23T06:16:33.238Z,85.95
2023-04-23T06:17:06.470Z,85.53
2023-04-23T06:17:40.107Z,85.28
2023-04-23T06:18:13.169Z,83.45
2023-04-23T06:18:45.800Z,83.43
2023-04-23T06:19:19.479Z,84.07
2023-04-23T06:19:52.136Z,83.93
2023-04-23T06:20:25.353Z,86.00
2023-04-23T06:21:04.200Z,84.25
2023-04-23T06:21:36.789Z,84.50
2023-04-23T06:22:09.589Z,86.10
2023-04-23T06:22:43.238Z,85.30
2023-04-23T06:23:15.767Z,85.38
2023-04-23T06:23:48.443Z,85.63
2023-04-23T06:24:22.040Z,85.75
2023-04-23T06:24:54.553Z,86.30
2023-04-23T06:25:27.112Z,86.40
2023-04-23T06:26:00.655Z,85.75
2023-04-23T06:26:33.350Z,85.35
2023-04-23T06:27:13.219Z,87.10
2023-04-23T06:27:50.717Z,87.18
2023-04-23T06:28:28.046Z,85.57
2023-04-23T06:29:24.489Z,86.43
2023-04-23T06:30:04.234Z,85.07
2023-04-23T06:30:36.733Z,84.10
2023-04-23T06:31:10.448Z,87.10
2023-04-23T06:31:43.104Z,87.13
2023-04-23T06:32:17.287Z,86.22
2023-04-23T06:32:52.669Z,84.55
2023-04-23T06:33:25.313Z,83.93
2023-04-23T06:33:58.106Z,84.57
2023-04-23T06:34:31.963Z,83.50
2023-04-23T06:35:05.122Z,86.43
2023-04-23T06:35:37.896Z,83.40
2023-04-23T06:36:11.765Z,85.05
2023-04-23T06:36:44.393Z,83.03
2023-04-23T06:37:17.033Z,84.40
2023-04-23T06:37:51.045Z,83.50
2023-04-23T06:38:23.836Z,81.97
2023-04-23T06:38:56.473Z,83.90
2023-04-23T06:39:30.122Z,82.43
2023-04-23T06:40:03.096Z,83.38
2023-04-23T06:40:38.123Z,80.72
2023-04-23T06:41:12.773Z,80.93
2023-04-23T06:41:45.348Z,81.82
2023-04-23T06:42:28.310Z,81.68
2023-04-23T06:43:21.922Z,82.13
2023-04-23T06:44:12.732Z,81.57
2023-04-23T06:44:49.173Z,80.45
2023-04-23T06:45:21.948Z,81.35
2023-04-23T06:45:56.426Z,78.22
2023-04-23T06:46:29.045Z,79.35
2023-04-23T06:47:01.771Z,79.93
2023-04-23T06:47:35.331Z,81.28
2023-04-23T06:48:07.947Z,80.82
2023-04-23T06:48:41.742Z,78.78
2023-04-23T06:49:14.305Z,79.43
2023-04-23T06:49:46.883Z,80.35
2023-04-23T06:50:20.897Z,78.63
2023-04-23T06:50:53.428Z,78.97
2023-04-23T06:51:26.432Z,78.85
2023-04-23T06:52:00.046Z,79.07
2023-04-23T06:52:32.609Z,78.43
2023-04-23T06:53:06.326Z,77.93
2023-04-23T06:53:38.910Z,78.97
2023-04-23T06:54:11.687Z,78.28
2023-04-23T06:54:45.328Z,77.90
2023-04-23T06:55:17.962Z,77.40
2023-04-23T06:55:51.330Z,77.00
2023-04-23T06:56:25.746Z,76.93
2023-04-23T06:56:58.592Z,77.78
2023-04-23T06:57:33.603Z,76.90
2023-04-23T06:58:08.391Z,76.75
2023-04-23T06:58:41.195Z,75.53
2023-04-23T06:59:24.687Z,75.32
2023-04-23T07:00:04.148Z,76.85
2023-04-23T07:00:42.786Z,76.72
2023-04-23T07:01:15.900Z,75.93
2023-04-23T07:01:49.859Z,77.20
2023-04-23T07:02:24.993Z,75.75
2023-04-23T07:02:57.808Z,74.20
2023-04-23T07:03:31.973Z,77.03
2023-04-23T07:04:04.621Z,76.05
2023-04-23T07:04:39.560Z,75.63
2023-04-23T07:05:13.395Z,75.43
2023-04-23T07:05:46.282Z,75.25
2023-04-23T07:06:18.942Z,75.35
2023-04-23T07:06:52.771Z,75.72
2023-04-23T07:07:26.289Z,73.13
2023-04-23T07:08:00.281Z,74.68
2023-04-23T07:08:32.989Z,75.60
2023-04-23T07:09:07.353Z,73.80
2023-04-23T07:09:39.895Z,74.07
2023-04-23T07:10:13.911Z,73.82
2023-04-23T07:10:48.553Z,74.10
2023-04-23T07:11:21.298Z,74.53